Kezdőlap
METAR-TAF:

METAR-TAF

Repülőterek :

Port of Spain, Trinidad, Trinidad és Tobago

földrajzi szélesség: 10-37N, földrajzi hosszúság: 061-21W, magasság: 12 m

Jelenlegi meteorológiai megfigyelések

A jelentés 56 perccel ezelõtt készült, 15:00 UTC
Keleti szél 18 kt
Hőmérséklet 29°C
Páratartalom 62%
Légköri nyomás 1016 hPa
Látótávolság 10 km, vagy több
Szórványos felhőzet 1800 lábon
Záporok a közelben

METAR: TTPP 211500Z 09018KT 9999 VCSH SCT018 29/21 Q1016 NOSIG RMK VCSH NE N S

Idő: 11:56 (15:56 UTC)

Előrejelzés

A jelentés 5 órával és 56 perccel ezelõtt készült, 10:00 UTC
Az előrejelzés 21-én 12 óra UTC és 22-én 12 óra UTC között érvényes
Keleti szél 15 kt
Látótávolság 10 km, vagy több
Szórványos felhőzet 3000 lábon

TAF: TTPP 211000Z 2112/2212 10015KT 9999 SCT030

Meteorológiai megfigyelések és előrejelzések több, mint 4000 repülőtéren (METAR és TAF jelentéseket).

A térképen piros és sárga pontok jelzik az elérhető meteorológiai állomásokat.

Mozgassa az egeret a pont fölött, hogy megjelenjen az állomás neve.

Azután kattintson az időjárási megfigyelések és előrejelzések megtekintéséhez.

A térkép megváltoztatása: kattintson a fekete keresztel jelölt zöld gombra ráközelítéshez, a vonallal jelölt zöld gombra távolításhoz, vagy a zöld nyilakra a szomszédos térképek eléréséhez.


METAR-TAF: